Airfield :
LOGIN :

Register | Disclaimer

   EN    FR    IT 

 










Legend :    VFR   Marginal VFR   IFR   Intensive IFR   Very Intensive IFR
Visi :
Ceiling :
>= 8 km
>= 3000ft
5 to 8 km
1000 to 3000 ft
1500m to 5 km
500 to 1000 ft
800 to 1500m
200 to 500 ft
< 800m
< 200 ft
Symbols :   Thunderstorms  Fog  Heavy snow  Heavy precipitations  Wind > 20 kt
SIGMETs :     Misc.  Thunderstorms  Icing  Turbulence  Mountain Waves  Volcanic Ashes







- Airport Elevation : 15 ft
- IATA code : BHD
- Download approach charts


EGAC - George Best Belfast City

CURRENT METAR :
  • 161520Z 22012KT 9999 FEW025 SCT032 15/11 Q1008

EXPIRED METARs :
  • 161450Z 20012KT 9999 FEW024 BKN033 14/12 Q1008
  • 161420Z 21011KT 9999 FEW011 SCT018 OVC031 14/12 Q1008
  • 161350Z 20012KT 9999 VCSH FEW010 SCT014 OVC021 14/12 Q1008
  • 161320Z 20013KT 9999 VCSH FEW011 SCT014 BKN019 14/11 Q1008
  • 161250Z 21011KT 9999 FEW011 SCT014 OVC018 14/11 Q1008

TAF AMD TAF EGAC
Valid from the 16 at 15:00 until the 16 at 21:00 UTC


161538Z 1615/1621 19012KT 9999 SCT030
ATIS : +44 02890 935 124
No reported NOTAMs for that airfield.
2 SIGMETs reported for the Scottish FIR (EGPX) :
 
Severe turbulence
EGPX SIGMET 08 VALID 161500/161900 EGRR
EGPX SCOTTISH FIR SEV TURB FCST WI N6100 W01000 - N6100 W00206 - N5708 W00615 - N5755 W01000 - N6100 W01000 SFC/FL050 MOV NE 20KT NC=
Severe mountain waves
EGPX SIGMET 07 VALID 161500/161900 EGRR
EGPX SCOTTISH FIR SEV MTW FCST WI N5521 W00221 - N5536 W00701 - N6100 W00517 - N6100 W00016 - N5521 W00221 FL050/250 STNR WKN=



MET'MAP, your aeronautical weather chart ! - Copyright ORBIFLY December 2007 - Disclaimer

ORBIFLY MET'MAP TEAM :

Programming & Development : Alexandra Zaïnal
Concept & Development : Baudouin d'Aumeries
Co-Development & Prog : Marc-Olivier Méhu
Technical & hardware support : Manuel Goepfert

Contact : metmap@orbifly.com




SOURCES & CREDITS :

   NOAA